Time;durP1;ratioP1;P1;durP2;ratioP2;P2;SDS_P1;SDS_P2;PMS_P1;PMS_P2;Temp;Humidity;BMP_temperature;BMP_pressure;BME280_temperature;BME280_humidity;BME280_pressure;Samples;Min_cycle;Max_cycle;Signal;HPM_P1;HPM_P2
2023/01/29 04:01:50;;;;;;;10.93;10.03;;;1.30;99.90;;;;;;5565642;22;20300;-77
2023/01/29 04:04:35;;;;;;;11.30;10.33;;;1.30;99.90;;;;;;5003174;28;20200;-77
2023/01/29 04:07:17;;;;;;;12.33;11.20;;;1.30;99.90;;;;;;4996329;28;20204;-77
2023/01/29 04:09:58;;;;;;;11.97;10.27;;;1.30;99.90;;;;;;5012314;28;20573;-76
2023/01/29 04:13:02;;;;;;;11.93;10.93;;;1.30;99.90;;;;;;4988176;28;20203;-77
2023/01/29 04:15:33;;;;;;;11.43;10.23;;;1.30;99.90;;;;;;5001348;23;20607;-81
2023/01/29 04:18:00;;;;;;;11.20;10.27;;;1.20;99.90;;;;;;5035609;28;20189;-81
2023/01/29 04:20:26;;;;;;;11.67;10.57;;;1.20;99.90;;;;;;5018169;28;20191;-81
2023/01/29 04:22:52;;;;;;;12.17;11.20;;;1.20;99.90;;;;;;5020152;28;20611;-84
2023/01/29 04:25:25;;;;;;;12.67;11.57;;;1.20;99.90;;;;;;5013051;28;20201;-81
2023/01/29 04:28:23;;;;;;;12.00;11.00;;;1.30;99.90;;;;;;4998532;28;20306;-81
2023/01/29 04:31:02;;;;;;;12.73;11.40;;;1.20;99.90;;;;;;4982181;28;20577;-81
2023/01/29 04:33:49;;;;;;;12.07;10.87;;;1.30;99.90;;;;;;4995762;28;20240;-83
2023/01/29 04:36:27;;;;;;;12.67;11.43;;;1.30;99.90;;;;;;4990310;28;20201;-81
2023/01/29 04:39:11;;;;;;;12.07;11.07;;;1.30;99.90;;;;;;5001280;28;20279;-81
2023/01/29 04:41:52;;;;;;;11.80;10.73;;;1.30;99.90;;;;;;4998185;28;20231;-83
2023/01/29 04:44:21;;;;;;;11.33;10.30;;;1.20;99.90;;;;;;5017674;28;20189;-83
2023/01/29 04:46:56;;;;;;;13.60;12.40;;;1.20;99.90;;;;;;5002071;28;20587;-81
2023/01/29 04:49:45;;;;;;;12.37;11.23;;;1.20;99.90;;;;;;5014904;28;20205;-82
2023/01/29 04:52:34;;;;;;;12.60;11.33;;;1.20;99.90;;;;;;4998513;28;20284;-81
2023/01/29 04:55:26;;;;;;;12.97;11.67;;;1.10;99.90;;;;;;4996789;28;20581;-81
2023/01/29 04:57:58;;;;;;;11.73;10.73;;;1.10;99.90;;;;;;4978883;28;20251;-84
2023/01/29 05:00:31;;;;;;;12.50;11.27;;;1.10;99.90;;;;;;4982578;28;20182;-81
2023/01/29 05:02:59;;;;;;;13.97;12.77;;;1.10;99.90;;;;;;4984638;28;20192;-81
2023/01/29 05:05:25;;;;;;;13.53;12.27;;;1.10;99.90;;;;;;4978296;28;20207;-82
2023/01/29 05:07:52;;;;;;;13.13;12.03;;;1.10;99.90;;;;;;4979787;28;20215;-80
2023/01/29 05:10:20;;;;;;;13.50;12.10;;;1.10;99.90;;;;;;5001431;28;20175;-82
2023/01/29 05:12:51;;;;;;;14.73;13.37;;;1.00;99.90;;;;;;5028483;28;20189;-81
2023/01/29 05:15:23;;;;;;;14.97;13.57;;;1.10;99.90;;;;;;5028951;28;20215;-84
2023/01/29 05:17:49;;;;;;;13.20;11.93;;;1.10;99.90;;;;;;5024152;28;20281;-81
2023/01/29 05:20:15;;;;;;;13.63;12.47;;;1.10;99.90;;;;;;4998244;28;20224;-81
2023/01/29 05:22:42;;;;;;;14.30;13.00;;;1.00;99.90;;;;;;5007966;28;20172;-81
2023/01/29 05:25:24;;;;;;;14.17;12.97;;;1.10;99.90;;;;;;5036522;28;20268;-81
2023/01/29 05:28:04;;;;;;;14.03;12.83;;;1.00;99.90;;;;;;5004101;28;20324;-82
2023/01/29 05:30:33;;;;;;;12.80;11.63;;;1.00;99.90;;;;;;4993923;28;20544;-84
2023/01/29 05:32:59;;;;;;;13.10;11.77;;;1.10;99.90;;;;;;4995686;28;20176;-82
2023/01/29 05:35:27;;;;;;;12.97;11.87;;;1.10;99.90;;;;;;4977428;28;20499;-81
2023/01/29 05:37:56;;;;;;;12.87;11.77;;;1.10;99.90;;;;;;4979014;28;20187;-81
2023/01/29 05:40:23;;;;;;;12.90;11.80;;;1.00;99.90;;;;;;4981486;28;20191;-81
2023/01/29 05:42:49;;;;;;;13.23;12.03;;;1.10;99.90;;;;;;4990180;28;20648;-82
2023/01/29 05:45:17;;;;;;;14.40;13.10;;;1.00;99.90;;;;;;4980249;28;20209;-81
2023/01/29 05:47:43;;;;;;;13.70;12.37;;;1.10;99.90;;;;;;4981291;28;20212;-83
2023/01/29 05:50:09;;;;;;;13.83;12.60;;;1.00;99.90;;;;;;4980363;28;20779;-84
2023/01/29 05:52:35;;;;;;;14.20;12.80;;;1.00;99.90;;;;;;5015241;28;20311;-84
2023/01/29 05:55:01;;;;;;;13.57;12.47;;;1.00;99.90;;;;;;4997673;28;20217;-82
2023/01/29 05:57:26;;;;;;;13.37;12.27;;;1.00;99.90;;;;;;4998146;28;20201;-80
2023/01/29 05:59:52;;;;;;;13.10;11.33;;;1.00;99.90;;;;;;4997374;28;20187;-81
2023/01/29 06:02:18;;;;;;;14.73;13.40;;;1.00;99.90;;;;;;5014055;28;20193;-82
2023/01/29 06:04:44;;;;;;;14.07;12.50;;;1.00;99.90;;;;;;4997362;28;20187;-82
2023/01/29 06:07:09;;;;;;;14.50;13.10;;;1.00;99.90;;;;;;4996748;28;20203;-82
2023/01/29 06:09:35;;;;;;;14.00;12.60;;;0.90;99.90;;;;;;5014362;28;20258;-82
2023/01/29 06:12:01;;;;;;;14.50;12.53;;;0.90;99.90;;;;;;4981506;28;20617;-81
2023/01/29 06:14:27;;;;;;;14.57;12.30;;;0.90;99.90;;;;;;4975129;28;20247;-70
2023/01/29 06:16:52;;;;;;;13.03;11.80;;;0.90;99.90;;;;;;4990763;28;20215;-70
2023/01/29 06:19:19;;;;;;;14.17;12.93;;;0.90;99.90;;;;;;4973465;28;20648;-71
2023/01/29 06:21:45;;;;;;;15.10;13.53;;;0.90;99.90;;;;;;5004076;28;20214;-70
2023/01/29 06:24:11;;;;;;;14.17;12.90;;;0.90;99.90;;;;;;5010806;28;20221;-71
2023/01/29 06:26:36;;;;;;;13.43;12.20;;;0.90;99.90;;;;;;5010531;28;20254;-70
2023/01/29 06:29:02;;;;;;;16.00;14.50;;;0.90;99.90;;;;;;5011150;28;20186;-70
2023/01/29 06:31:28;;;;;;;14.10;12.80;;;0.80;99.90;;;;;;5008927;28;20264;-71
2023/01/29 06:33:53;;;;;;;14.73;13.33;;;0.80;99.90;;;;;;5010612;28;20186;-71
2023/01/29 06:36:19;;;;;;;13.73;12.53;;;0.80;99.90;;;;;;5010504;28;20227;-70
2023/01/29 06:38:46;;;;;;;14.53;13.03;;;0.80;99.90;;;;;;4992674;28;20189;-70
2023/01/29 06:41:15;;;;;;;12.33;11.27;;;0.90;99.90;;;;;;4984422;28;20173;-70
2023/01/29 06:43:43;;;;;;;14.63;13.33;;;0.90;99.90;;;;;;4973834;28;20650;-70
2023/01/29 06:46:09;;;;;;;13.10;11.90;;;0.80;99.90;;;;;;4973233;28;20827;-71
2023/01/29 06:48:35;;;;;;;13.23;12.07;;;0.90;99.90;;;;;;4973148;28;20213;-71
2023/01/29 06:51:05;;;;;;;13.23;12.07;;;0.90;99.90;;;;;;4997384;28;20206;-70
2023/01/29 06:53:32;;;;;;;49.43;45.60;;;0.90;99.90;;;;;;5010495;28;20187;-71
2023/01/29 06:55:58;;;;;;;13.80;12.70;;;0.90;99.90;;;;;;5010458;28;20196;-71
2023/01/29 06:58:24;;;;;;;14.37;13.07;;;0.90;99.90;;;;;;5010057;28;20196;-73
2023/01/29 07:00:50;;;;;;;14.13;12.10;;;0.90;99.90;;;;;;5005771;28;20180;-71
2023/01/29 07:03:16;;;;;;;15.07;13.77;;;1.00;99.90;;;;;;4973470;28;20201;-70
2023/01/29 07:05:42;;;;;;;13.37;11.90;;;1.00;99.90;;;;;;4991092;28;20774;-70
2023/01/29 07:08:08;;;;;;;14.90;13.40;;;1.00;99.90;;;;;;4990223;28;20633;-70
2023/01/29 07:10:34;;;;;;;13.50;12.20;;;1.00;99.90;;;;;;4992822;28;20218;-70
2023/01/29 07:13:00;;;;;;;13.57;12.23;;;1.00;99.90;;;;;;5010564;28;20685;-71
2023/01/29 07:15:27;;;;;;;14.40;13.03;;;1.00;99.90;;;;;;4992743;28;20254;-71
2023/01/29 07:18:04;;;;;;;15.53;14.07;;;1.10;99.90;;;;;;5009978;28;20807;-70
2023/01/29 07:20:30;;;;;;;13.10;12.00;;;1.10;99.90;;;;;;5008869;28;20189;-71
2023/01/29 07:22:57;;;;;;;12.93;11.83;;;1.10;99.90;;;;;;4990698;28;20191;-71
2023/01/29 07:25:24;;;;;;;13.03;11.73;;;1.10;99.90;;;;;;4973028;28;20581;-70
2023/01/29 07:27:49;;;;;;;12.80;11.57;;;1.10;99.90;;;;;;4990141;28;20210;-70
2023/01/29 07:30:16;;;;;;;13.93;12.53;;;1.10;99.90;;;;;;4973706;28;20191;-71
2023/01/29 07:32:42;;;;;;;14.50;13.20;;;1.10;99.90;;;;;;4994332;28;20185;-71
2023/01/29 07:35:08;;;;;;;14.70;13.27;;;1.00;99.90;;;;;;4994248;28;20203;-71
2023/01/29 07:37:34;;;;;;;13.03;11.73;;;1.00;99.90;;;;;;4993930;28;20181;-73
2023/01/29 07:40:00;;;;;;;13.00;11.67;;;1.00;99.90;;;;;;4994278;28;20331;-71
2023/01/29 07:42:26;;;;;;;13.77;12.30;;;1.10;99.90;;;;;;5010467;28;20192;-71
2023/01/29 07:44:51;;;;;;;13.60;12.37;;;1.10;99.90;;;;;;5006764;28;20593;-70
2023/01/29 07:47:17;;;;;;;14.00;12.10;;;1.10;99.90;;;;;;5000561;28;20207;-70
2023/01/29 07:49:43;;;;;;;13.37;12.07;;;1.20;99.90;;;;;;5007830;28;20216;-70
2023/01/29 07:52:09;;;;;;;22.83;20.37;;;1.20;99.90;;;;;;4992907;28;20187;-70
2023/01/29 07:54:34;;;;;;;19.37;14.03;;;1.30;99.90;;;;;;4993848;28;20188;-70
2023/01/29 07:57:00;;;;;;;13.90;12.50;;;1.30;99.90;;;;;;4976410;28;20197;-70
2023/01/29 07:59:26;;;;;;;13.37;12.07;;;1.30;99.90;;;;;;4993888;28;20252;-70
2023/01/29 08:01:51;;;;;;;13.53;11.83;;;1.40;99.90;;;;;;5005142;28;20178;-70
2023/01/29 08:04:17;;;;;;;12.77;11.57;;;1.50;99.90;;;;;;5013396;28;20183;-70
2023/01/29 08:06:43;;;;;;;14.00;12.20;;;1.50;99.90;;;;;;4993672;28;20204;-71
2023/01/29 08:09:09;;;;;;;13.93;12.57;;;1.50;99.90;;;;;;4993208;28;20262;-70
2023/01/29 08:11:35;;;;;;;13.63;12.43;;;1.50;99.90;;;;;;4993942;28;20193;-70
2023/01/29 08:14:01;;;;;;;13.40;12.07;;;1.60;99.90;;;;;;4998544;28;20671;-71
2023/01/29 08:16:27;;;;;;;13.27;11.87;;;1.60;99.90;;;;;;4991654;28;20218;-71
2023/01/29 08:18:53;;;;;;;14.37;12.83;;;1.60;99.90;;;;;;4994213;28;20191;-71
2023/01/29 08:21:19;;;;;;;12.50;11.40;;;1.60;99.90;;;;;;4985669;28;20195;-71
2023/01/29 08:23:44;;;;;;;13.70;12.30;;;1.70;99.90;;;;;;5013171;28;20703;-71
2023/01/29 08:26:10;;;;;;;14.17;12.73;;;1.70;99.90;;;;;;5001736;28;20255;-73
2023/01/29 08:28:37;;;;;;;13.27;11.97;;;1.70;99.90;;;;;;4997022;28;20210;-72
2023/01/29 08:31:04;;;;;;;13.37;12.07;;;1.80;99.90;;;;;;4980032;28;20225;-72
2023/01/29 08:33:30;;;;;;;12.83;11.63;;;1.80;99.90;;;;;;5000624;28;20185;-71
2023/01/29 08:35:55;;;;;;;15.80;12.73;;;1.70;99.90;;;;;;5001030;28;20612;-71
2023/01/29 08:38:21;;;;;;;12.73;10.70;;;1.80;99.90;;;;;;4985864;28;20235;-70
2023/01/29 08:40:47;;;;;;;11.77;10.60;;;1.80;99.90;;;;;;4985035;28;20623;-71
2023/01/29 08:43:13;;;;;;;12.07;10.87;;;1.80;99.90;;;;;;5001995;28;20183;-71
2023/01/29 08:45:41;;;;;;;12.43;11.27;;;1.70;99.90;;;;;;5004335;28;20320;-70
2023/01/29 08:48:08;;;;;;;11.53;10.43;;;1.70;99.90;;;;;;5002168;28;20227;-71
2023/01/29 08:50:34;;;;;;;12.53;11.23;;;1.70;99.90;;;;;;5002801;28;20650;-71
2023/01/29 08:53:02;;;;;;;11.57;10.23;;;1.70;99.90;;;;;;5003686;28;20288;-72
2023/01/29 08:55:28;;;;;;;11.37;10.37;;;1.80;99.90;;;;;;4984524;28;20199;-71
2023/01/29 08:57:56;;;;;;;12.27;11.07;;;1.80;99.90;;;;;;4975334;28;20192;-72
2023/01/29 09:00:22;;;;;;;12.83;11.50;;;1.80;99.90;;;;;;4975833;28;20410;-72
2023/01/29 09:02:47;;;;;;;11.77;10.77;;;1.80;99.90;;;;;;5010022;28;20247;-71
2023/01/29 09:05:14;;;;;;;13.07;11.97;;;1.90;99.90;;;;;;5000431;28;20207;-71
2023/01/29 09:07:39;;;;;;;12.13;11.03;;;1.90;99.90;;;;;;5010422;28;20212;-71
2023/01/29 09:10:07;;;;;;;13.83;12.40;;;2.10;99.90;;;;;;5012089;28;20642;-71
2023/01/29 09:12:33;;;;;;;10.57;9.77;;;2.20;99.90;;;;;;5011353;28;20551;-71
2023/01/29 09:14:58;;;;;;;11.13;10.13;;;2.20;99.90;;;;;;4994529;28;20198;-71
2023/01/29 09:17:24;;;;;;;12.10;11.10;;;2.30;99.90;;;;;;4989787;28;20184;-72
2023/01/29 09:19:51;;;;;;;10.77;9.77;;;2.40;99.90;;;;;;4991016;28;20652;-71
2023/01/29 09:22:18;;;;;;;11.70;10.60;;;2.40;99.90;;;;;;4990086;28;20190;-71
2023/01/29 09:24:44;;;;;;;12.47;11.27;;;2.40;99.90;;;;;;4992336;28;20250;-72
2023/01/29 09:27:10;;;;;;;11.20;10.07;;;2.50;99.90;;;;;;4974786;28;20633;-72
2023/01/29 09:29:36;;;;;;;11.13;10.13;;;2.50;99.90;;;;;;5011680;28;20190;-72
2023/01/29 09:32:03;;;;;;;11.53;10.43;;;2.40;99.90;;;;;;5011718;28;20694;-72
2023/01/29 09:34:29;;;;;;;12.23;11.03;;;2.50;99.90;;;;;;4994581;28;20289;-71
2023/01/29 09:36:55;;;;;;;10.60;9.60;;;2.40;99.90;;;;;;5011511;28;20230;-72
2023/01/29 09:39:21;;;;;;;11.23;10.13;;;2.40;99.90;;;;;;4977408;28;20214;-71
2023/01/29 09:41:54;;;;;;;12.33;10.57;;;2.30;99.90;;;;;;4974969;28;20659;-72
2023/01/29 09:44:25;;;;;;;11.47;10.37;;;2.40;99.90;;;;;;4975101;28;20192;-70
2023/01/29 09:46:53;;;;;;;10.60;9.70;;;2.50;99.90;;;;;;4991772;28;20212;-71
2023/01/29 09:49:34;;;;;;;11.40;10.50;;;2.50;99.90;;;;;;5008767;28;20209;-70
2023/01/29 09:52:40;;;;;;;10.90;9.87;;;2.50;99.90;;;;;;5011942;28;20194;-72
2023/01/29 09:55:17;;;;;;;11.87;10.77;;;2.50;99.90;;;;;;5011691;28;20684;-71
2023/01/29 09:57:50;;;;;;;10.77;9.77;;;2.60;99.90;;;;;;4992001;28;20177;-72
2023/01/29 10:00:37;;;;;;;12.50;11.20;;;2.70;99.90;;;;;;4995574;28;20563;-71
2023/01/29 10:03:06;;;;;;;11.70;10.70;;;2.80;99.90;;;;;;4977592;28;20658;-73
2023/01/29 10:05:37;;;;;;;11.67;10.47;;;2.70;99.90;;;;;;4995561;28;20210;-72
2023/01/29 10:08:25;;;;;;;10.73;9.83;;;2.70;99.90;;;;;;5000163;28;20255;-71
2023/01/29 10:11:29;;;;;;;11.10;10.10;;;3.00;99.90;;;;;;5012168;28;20226;-70
2023/01/29 10:14:36;;;;;;;10.90;10.00;;;3.40;99.90;;;;;;5012150;28;20652;-73
2023/01/29 10:17:27;;;;;;;10.67;9.77;;;3.60;99.90;;;;;;5048786;22;20232;-71
2023/01/29 10:19:56;;;;;;;11.40;10.30;;;3.90;99.90;;;;;;5011322;28;20626;-72
2023/01/29 10:22:36;;;;;;;11.40;10.30;;;3.90;99.90;;;;;;5011487;28;20189;-72
2023/01/29 10:25:11;;;;;;;11.50;10.50;;;3.90;99.90;;;;;;5011206;28;20673;-73
2023/01/29 10:27:43;;;;;;;11.03;10.13;;;4.00;99.90;;;;;;5011532;28;20312;-73
2023/01/29 10:30:34;;;;;;;11.67;10.67;;;4.00;99.90;;;;;;5030877;28;20232;-73
2023/01/29 10:33:06;;;;;;;12.10;11.00;;;4.10;99.90;;;;;;5017408;28;20189;-73
2023/01/29 10:35:54;;;;;;;11.70;10.70;;;4.00;99.90;;;;;;5030833;28;20754;-72
2023/01/29 10:38:41;;;;;;;10.97;10.07;;;4.00;99.90;;;;;;5023240;28;20193;-73
2023/01/29 10:41:09;;;;;;;12.20;11.20;;;3.70;99.90;;;;;;4993769;28;20183;-72
2023/01/29 10:43:53;;;;;;;11.83;10.90;;;3.60;99.90;;;;;;5011173;28;20194;-72
2023/01/29 10:46:37;;;;;;;12.00;11.07;;;3.60;99.90;;;;;;5016255;28;20209;-72
2023/01/29 10:49:25;;;;;;;12.30;11.13;;;3.70;99.90;;;;;;5007266;28;20202;-73
2023/01/29 10:52:28;;;;;;;12.10;11.10;;;3.60;99.90;;;;;;5013577;28;20561;-72
2023/01/29 10:55:13;;;;;;;11.60;10.70;;;3.50;99.90;;;;;;5031566;28;20293;-72
2023/01/29 10:58:21;;;;;;;12.70;11.70;;;3.40;99.90;;;;;;5011755;28;20191;-72
2023/01/29 11:00:51;;;;;;;12.60;11.40;;;3.50;99.90;;;;;;4972847;28;20565;-72
2023/01/29 11:03:31;;;;;;;12.27;11.27;;;3.60;99.90;;;;;;5010991;28;20184;-72
2023/01/29 11:06:27;;;;;;;12.23;11.30;;;3.80;99.90;;;;;;5012180;28;20246;-71
2023/01/29 11:09:17;;;;;;;12.60;11.30;;;3.80;99.90;;;;;;5007795;28;20305;-72
2023/01/29 11:11:49;;;;;;;12.67;11.57;;;3.70;99.90;;;;;;5034473;28;20190;-72
2023/01/29 11:14:28;;;;;;;13.00;11.60;;;3.80;99.90;;;;;;5034296;28;20193;-72
2023/01/29 11:16:54;;;;;;;14.13;12.83;;;3.70;99.90;;;;;;5033883;28;20272;-72
2023/01/29 11:19:44;;;;;;;15.03;13.60;;;3.70;99.90;;;;;;5019595;28;20662;-72
2023/01/29 11:22:19;;;;;;;15.07;13.73;;;3.50;99.90;;;;;;5014757;28;20672;-72
2023/01/29 11:24:46;;;;;;;12.73;11.53;;;3.40;99.90;;;;;;5014652;28;20289;-71
2023/01/29 11:27:24;;;;;;;13.23;12.07;;;3.30;99.90;;;;;;5014154;28;20211;-73
2023/01/29 11:29:52;;;;;;;12.30;11.30;;;3.60;99.90;;;;;;5014267;28;20190;-72
2023/01/29 11:32:20;;;;;;;14.07;12.73;;;3.50;99.90;;;;;;5034126;28;20175;-72
2023/01/29 11:35:20;;;;;;;14.07;12.60;;;3.60;99.90;;;;;;5034300;28;20182;-73
2023/01/29 11:37:46;;;;;;;13.00;11.77;;;3.70;99.90;;;;;;4978939;28;20193;-73
2023/01/29 11:40:18;;;;;;;12.77;11.50;;;3.70;99.90;;;;;;5014633;28;20184;-72
2023/01/29 11:42:47;;;;;;;12.67;11.47;;;3.60;99.90;;;;;;5014286;28;20190;-73
2023/01/29 11:45:22;;;;;;;13.30;12.20;;;3.70;99.90;;;;;;5014452;28;20654;-73
2023/01/29 11:47:51;;;;;;;14.73;13.40;;;3.70;99.90;;;;;;5014971;28;20210;-73
2023/01/29 11:50:24;;;;;;;13.10;12.00;;;3.80;99.90;;;;;;5034326;28;20558;-73
2023/01/29 11:52:50;;;;;;;13.63;12.30;;;3.90;99.90;;;;;;5034303;28;20185;-73
2023/01/29 11:55:22;;;;;;;14.00;12.70;;;3.90;99.90;;;;;;5051364;28;20174;-73
2023/01/29 11:58:05;;;;;;;13.13;11.87;;;3.90;99.90;;;;;;5039592;28;20194;-73
2023/01/29 12:00:34;;;;;;;12.00;11.00;;;4.00;99.90;;;;;;5013919;28;20190;-73
2023/01/29 12:03:30;;;;;;;12.03;11.03;;;4.10;99.90;;;;;;4996473;28;20562;-73
2023/01/29 12:06:08;;;;;;;13.07;11.67;;;4.00;99.90;;;;;;4975815;28;20221;-73
2023/01/29 12:08:38;;;;;;;12.17;11.07;;;3.80;99.90;;;;;;5014369;28;20245;-73
2023/01/29 12:11:24;;;;;;;13.43;12.03;;;3.90;99.90;;;;;;5032229;28;20281;-73
2023/01/29 12:13:55;;;;;;;12.87;11.67;;;4.00;99.90;;;;;;5025009;28;20535;-73
2023/01/29 12:16:24;;;;;;;12.93;11.70;;;3.80;99.90;;;;;;4994735;28;20236;-73
2023/01/29 12:19:15;;;;;;;13.37;12.10;;;3.90;99.90;;;;;;5004576;28;20632;-74
2023/01/29 12:22:07;;;;;;;12.67;11.47;;;4.20;99.90;;;;;;5032671;28;20196;-71
2023/01/29 12:24:49;;;;;;;13.57;12.37;;;4.40;99.90;;;;;;4971580;28;20570;-71
2023/01/29 12:27:18;;;;;;;14.17;12.83;;;4.30;99.90;;;;;;5030301;28;20215;-72
2023/01/29 12:30:12;;;;;;;13.87;12.50;;;4.50;99.90;;;;;;5029998;28;20526;-71
2023/01/29 12:32:54;;;;;;;14.53;12.93;;;4.60;99.90;;;;;;5025232;28;20236;-72
2023/01/29 12:36:07;;;;;;;14.10;12.80;;;4.40;99.90;;;;;;5019327;28;20189;-72
2023/01/29 12:38:33;;;;;;;14.03;12.70;;;4.40;99.90;;;;;;5012034;28;20191;-72
2023/01/29 12:41:20;;;;;;;15.20;13.60;;;4.50;99.90;;;;;;5012861;28;20190;-74
2023/01/29 12:43:54;;;;;;;13.03;11.77;;;4.90;99.90;;;;;;5031616;28;20189;-72
2023/01/29 12:46:21;;;;;;;13.53;12.33;;;5.20;99.90;;;;;;5015129;28;20260;-72
2023/01/29 12:48:49;;;;;;;14.83;13.30;;;5.30;99.90;;;;;;5032049;28;20214;-72
2023/01/29 12:51:19;;;;;;;13.37;12.07;;;5.30;99.90;;;;;;5032612;28;20180;-78
2023/01/29 12:54:08;;;;;;;14.03;12.03;;;5.30;99.90;;;;;;5045675;28;20185;-77
2023/01/29 12:56:47;;;;;;;13.17;11.87;;;5.00;99.90;;;;;;5017788;28;20213;-76
2023/01/29 12:59:42;;;;;;;12.90;11.43;;;4.80;99.90;;;;;;5036970;28;20681;-77
2023/01/29 13:02:28;;;;;;;14.73;13.07;;;4.80;99.90;;;;;;5031148;28;20184;-78
2023/01/29 13:05:17;;;;;;;14.13;12.73;;;4.70;99.90;;;;;;5038127;28;20193;-78
2023/01/29 13:07:48;;;;;;;14.67;12.70;;;4.50;99.90;;;;;;5025997;28;20244;-79
2023/01/29 13:10:22;;;;;;;15.20;13.80;;;4.40;99.90;;;;;;5038871;28;20195;-79
2023/01/29 13:12:57;;;;;;;15.27;13.73;;;4.60;99.90;;;;;;5026550;28;20278;-79
2023/01/29 13:15:41;;;;;;;13.97;12.67;;;4.70;99.90;;;;;;5035114;28;20201;-80
2023/01/29 13:18:55;;;;;;;15.27;12.83;;;4.50;99.90;;;;;;5033444;28;20194;-80
2023/01/29 13:21:29;;;;;;;19.33;14.00;;;4.50;99.90;;;;;;4979377;28;20801;-79
2023/01/29 13:24:00;;;;;;;14.93;12.43;;;4.40;99.90;;;;;;4996602;28;20215;-80
2023/01/29 13:26:27;;;;;;;15.60;13.90;;;4.80;99.90;;;;;;5013202;28;20290;-80
2023/01/29 13:28:54;;;;;;;13.47;12.20;;;5.30;99.90;;;;;;5011683;28;20208;-81
2023/01/29 13:31:28;;;;;;;14.57;13.07;;;5.80;99.90;;;;;;4998260;28;20187;-80
2023/01/29 13:34:02;;;;;;;13.27;12.03;;;5.70;99.90;;;;;;5015144;28;20197;-81
2023/01/29 13:36:30;;;;;;;12.40;11.20;;;6.10;99.90;;;;;;5016502;28;20631;-80
2023/01/29 13:39:07;;;;;;;13.90;12.43;;;6.60;99.90;;;;;;5034279;28;20186;-80
2023/01/29 13:41:41;;;;;;;12.80;11.50;;;7.00;99.90;;;;;;5032721;28;20187;-80
2023/01/29 13:44:28;;;;;;;12.60;11.23;;;6.80;99.90;;;;;;5014199;28;20179;-79
2023/01/29 13:46:56;;;;;;;12.63;11.43;;;6.60;99.90;;;;;;5002359;28;20226;-78
2023/01/29 13:49:33;;;;;;;13.13;11.83;;;6.00;99.90;;;;;;5004916;28;20187;-78
2023/01/29 13:52:22;;;;;;;12.93;11.27;;;5.50;99.90;;;;;;4998859;28;20180;-79
2023/01/29 13:55:04;;;;;;;15.07;13.50;;;5.00;99.90;;;;;;5012433;28;20190;-79
2023/01/29 13:57:42;;;;;;;12.77;11.50;;;4.60;99.90;;;;;;5012221;28;20192;-79
2023/01/29 14:00:20;;;;;;;13.57;12.17;;;4.50;99.90;;;;;;5007405;28;20187;-78
2023/01/29 14:03:12;;;;;;;12.97;11.67;;;4.60;99.90;;;;;;5014241;28;20186;-78
2023/01/29 14:05:42;;;;;;;12.93;11.20;;;4.90;99.90;;;;;;4985405;28;20217;-77
2023/01/29 14:08:08;;;;;;;12.97;11.57;;;4.70;99.90;;;;;;5017270;28;20217;-76
2023/01/29 14:10:37;;;;;;;13.13;11.83;;;4.50;99.90;;;;;;5031023;28;20282;-77
2023/01/29 14:13:03;;;;;;;13.40;12.00;;;4.40;99.90;;;;;;5021578;28;20650;-77
2023/01/29 14:15:34;;;;;;;13.03;11.70;;;4.30;99.90;;;;;;4993368;28;20276;-76
2023/01/29 14:18:22;;;;;;;13.53;12.10;;;4.40;99.90;;;;;;5030574;28;20193;-77
2023/01/29 14:21:01;;;;;;;11.93;10.73;;;4.30;99.90;;;;;;5036544;28;20254;-76
2023/01/29 14:23:49;;;;;;;16.80;14.20;;;4.30;99.90;;;;;;5015328;28;20310;-77
2023/01/29 14:26:37;;;;;;;13.13;11.10;;;4.40;99.90;;;;;;4994985;28;20805;-77
2023/01/29 14:29:17;;;;;;;12.20;10.97;;;4.30;99.90;;;;;;4993099;28;20561;-77
2023/01/29 14:31:48;;;;;;;12.10;10.90;;;4.20;99.90;;;;;;4993890;28;20630;-78
2023/01/29 14:34:24;;;;;;;16.80;11.93;;;4.20;99.90;;;;;;5027975;28;20245;-77
2023/01/29 14:36:54;;;;;;;13.20;11.80;;;4.20;99.90;;;;;;5030675;28;20758;-77
2023/01/29 14:39:22;;;;;;;14.73;13.13;;;4.20;99.90;;;;;;5030080;28;20209;-77
2023/01/29 14:41:50;;;;;;;14.03;11.60;;;4.20;99.90;;;;;;5009671;28;20252;-77
2023/01/29 14:44:44;;;;;;;13.67;12.23;;;4.20;99.90;;;;;;5029690;28;20204;-74
2023/01/29 14:47:21;;;;;;;15.33;12.77;;;4.20;99.90;;;;;;5017905;28;20215;-73
2023/01/29 14:49:50;;;;;;;16.83;12.97;;;4.20;99.90;;;;;;5016507;28;20182;-73
2023/01/29 14:52:18;;;;;;;13.87;12.47;;;4.20;99.90;;;;;;5020520;28;20179;-73
2023/01/29 14:54:47;;;;;;;16.47;14.70;;;4.10;99.90;;;;;;5019744;28;20192;-73
2023/01/29 14:57:16;;;;;;;15.20;13.70;;;4.00;99.90;;;;;;5035116;28;20210;-73
2023/01/29 15:00:00;;;;;;;14.73;13.43;;;3.90;99.90;;;;;;5036806;28;20817;-73
2023/01/29 15:02:35;;;;;;;14.77;13.40;;;3.80;99.90;;;;;;5030196;28;20258;-73
2023/01/29 15:05:05;;;;;;;16.33;14.63;;;3.80;99.90;;;;;;5000114;28;20545;-73
2023/01/29 15:07:41;;;;;;;17.60;15.97;;;3.80;99.90;;;;;;5016895;28;20211;-73
2023/01/29 15:10:28;;;;;;;17.20;15.43;;;3.80;99.90;;;;;;5017679;28;20569;-73
2023/01/29 15:13:02;;;;;;;17.43;15.53;;;3.50;99.90;;;;;;5027638;28;20177;-73
2023/01/29 15:15:42;;;;;;;16.93;15.10;;;3.20;99.90;;;;;;5037046;28;20707;-73
2023/01/29 15:18:17;;;;;;;18.10;13.87;;;3.10;99.90;;;;;;5036648;28;20186;-72
2023/01/29 15:20:44;;;;;;;19.77;14.10;;;3.00;99.90;;;;;;5037334;28;20559;-73
2023/01/29 15:23:26;;;;;;;15.13;13.50;;;3.00;99.90;;;;;;5024379;28;20640;-72
2023/01/29 15:25:55;;;;;;;20.47;14.70;;;2.90;99.90;;;;;;5017330;28;20210;-72
2023/01/29 15:28:21;;;;;;;16.40;13.10;;;2.80;99.90;;;;;;5016764;28;20626;-73
2023/01/29 15:30:55;;;;;;;16.37;14.43;;;2.80;99.90;;;;;;5017350;28;20233;-73
2023/01/29 15:33:21;;;;;;;22.60;14.60;;;2.80;99.90;;;;;;5030288;28;20189;-72
2023/01/29 15:35:47;;;;;;;17.23;14.90;;;2.70;99.90;;;;;;5036970;28;20691;-72
2023/01/29 15:38:18;;;;;;;26.17;17.23;;;2.60;99.90;;;;;;5041356;28;20176;-73
2023/01/29 15:41:02;;;;;;;24.50;17.20;;;2.60;99.90;;;;;;5061262;28;20205;-73
2023/01/29 15:43:35;;;;;;;18.87;15.33;;;2.50;99.90;;;;;;5017887;28;20180;-72
2023/01/29 15:46:11;;;;;;;18.53;13.97;;;2.50;99.90;;;;;;5036456;28;20200;-72
2023/01/29 15:48:42;;;;;;;15.60;14.00;;;2.40;99.90;;;;;;5036698;28;20221;-72
2023/01/29 15:51:16;;;;;;;15.57;13.73;;;2.30;99.90;;;;;;5042767;28;20183;-72
2023/01/29 15:53:52;;;;;;;17.10;13.87;;;2.20;99.90;;;;;;5032656;28;20214;-73
2023/01/29 15:56:24;;;;;;;18.87;15.70;;;2.00;99.90;;;;;;5020889;28;20207;-73
2023/01/29 15:58:51;;;;;;;17.63;15.00;;;1.90;99.90;;;;;;5015652;28;20646;-72
2023/01/29 16:01:17;;;;;;;17.40;14.93;;;1.80;99.90;;;;;;5014189;28;20223;-72
2023/01/29 16:03:44;;;;;;;15.97;14.37;;;1.70;99.90;;;;;;5029462;28;20189;-72
2023/01/29 16:06:10;;;;;;;17.00;15.20;;;1.60;99.90;;;;;;5033466;28;20201;-72
2023/01/29 16:08:38;;;;;;;23.33;16.30;;;1.50;99.90;;;;;;5033218;28;20210;-73
2023/01/29 16:11:06;;;;;;;18.00;15.80;;;1.40;99.90;;;;;;5033466;28;20189;-72
2023/01/29 16:13:35;;;;;;;18.47;16.27;;;1.30;99.90;;;;;;5019413;28;20178;-72
2023/01/29 16:16:03;;;;;;;18.20;15.23;;;1.20;99.90;;;;;;5016535;23;20234;-70
2023/01/29 16:18:35;;;;;;;33.07;30.30;;;1.10;99.90;;;;;;4994204;28;20184;-69
2023/01/29 16:21:07;;;;;;;17.73;15.17;;;1.00;99.90;;;;;;4994069;28;20653;-70
2023/01/29 16:23:41;;;;;;;19.70;16.60;;;0.90;99.90;;;;;;5008291;28;20636;-69
2023/01/29 16:26:14;;;;;;;18.27;14.90;;;0.80;99.90;;;;;;5013500;28;20610;-70
2023/01/29 16:28:44;;;;;;;18.27;15.30;;;0.70;99.90;;;;;;5012914;28;20364;-70
2023/01/29 16:31:12;;;;;;;34.77;22.33;;;0.60;99.90;;;;;;5013312;28;20187;-70
2023/01/29 16:33:42;;;;;;;22.70;18.17;;;0.60;99.90;;;;;;5013095;28;20589;-70
2023/01/29 16:36:27;;;;;;;22.47;17.77;;;0.50;99.90;;;;;;5012982;28;20206;-70
2023/01/29 16:38:59;;;;;;;20.33;16.37;;;0.40;99.90;;;;;;5012742;28;20180;-70
2023/01/29 16:41:30;;;;;;;23.33;17.87;;;0.30;99.90;;;;;;5013132;28;20198;-71
2023/01/29 16:44:27;;;;;;;23.03;17.17;;;0.20;99.90;;;;;;4995256;28;20183;-70
2023/01/29 16:46:53;;;;;;;19.03;15.53;;;0.10;99.90;;;;;;4995575;28;20258;-71
2023/01/29 16:49:24;;;;;;;19.43;17.17;;;0.10;99.90;;;;;;5012998;28;20669;-71
2023/01/29 16:51:51;;;;;;;20.90;17.53;;;0.00;99.90;;;;;;5013138;28;20186;-70
2023/01/29 16:54:22;;;;;;;40.20;25.63;;;-0.10;99.90;;;;;;5013113;28;20241;-70
2023/01/29 16:56:51;;;;;;;38.03;24.97;;;-0.20;99.90;;;;;;5012612;28;20258;-70
2023/01/29 16:59:31;;;;;;;32.23;20.30;;;-0.20;99.90;;;;;;4995176;28;20700;-70
2023/01/29 17:01:58;;;;;;;22.73;17.03;;;-0.20;99.90;;;;;;5012923;28;20182;-69
2023/01/29 17:04:23;;;;;;;21.60;16.00;;;-0.20;99.90;;;;;;5011075;28;20711;-70
2023/01/29 17:06:54;;;;;;;23.87;17.83;;;-0.20;99.90;;;;;;4994817;28;20231;-70